sensor_id;sensor_type;location;lat;lon;timestamp;P1;durP1;ratioP1;P2;durP2;ratioP2
13445;SDS011;6795;51.232;3.764;2024-01-10T00:00:45;9.70;;;7.83;;
13445;SDS011;6795;51.232;3.764;2024-01-10T00:03:13;11.30;;;8.10;;
13445;SDS011;6795;51.232;3.764;2024-01-10T00:05:43;8.13;;;5.80;;
13445;SDS011;6795;51.232;3.764;2024-01-10T00:08:12;9.83;;;7.47;;
13445;SDS011;6795;51.232;3.764;2024-01-10T00:10:40;16.87;;;15.33;;
13445;SDS011;6795;51.232;3.764;2024-01-10T00:13:09;8.00;;;5.93;;
13445;SDS011;6795;51.232;3.764;2024-01-10T00:15:37;8.00;;;6.07;;
13445;SDS011;6795;51.232;3.764;2024-01-10T00:18:06;5.50;;;4.03;;
13445;SDS011;6795;51.232;3.764;2024-01-10T00:20:34;4.97;;;3.50;;
13445;SDS011;6795;51.232;3.764;2024-01-10T00:23:04;7.03;;;4.27;;
13445;SDS011;6795;51.232;3.764;2024-01-10T00:25:33;5.33;;;4.50;;
13445;SDS011;6795;51.232;3.764;2024-01-10T00:28:02;7.83;;;4.10;;
13445;SDS011;6795;51.232;3.764;2024-01-10T00:30:30;5.67;;;3.63;;
13445;SDS011;6795;51.232;3.764;2024-01-10T00:32:59;5.23;;;3.60;;
13445;SDS011;6795;51.232;3.764;2024-01-10T00:35:27;6.43;;;4.90;;
13445;SDS011;6795;51.232;3.764;2024-01-10T00:37:56;6.30;;;4.73;;
13445;SDS011;6795;51.232;3.764;2024-01-10T00:40:26;4.57;;;3.50;;
13445;SDS011;6795;51.232;3.764;2024-01-10T00:42:54;7.87;;;4.33;;
13445;SDS011;6795;51.232;3.764;2024-01-10T00:45:22;6.20;;;3.87;;
13445;SDS011;6795;51.232;3.764;2024-01-10T00:47:51;6.10;;;3.57;;
13445;SDS011;6795;51.232;3.764;2024-01-10T00:50:20;5.40;;;3.70;;
13445;SDS011;6795;51.232;3.764;2024-01-10T00:52:48;5.63;;;4.13;;
13445;SDS011;6795;51.232;3.764;2024-01-10T00:55:17;6.13;;;4.27;;
13445;SDS011;6795;51.232;3.764;2024-01-10T00:57:46;4.53;;;3.97;;
13445;SDS011;6795;51.232;3.764;2024-01-10T01:00:15;5.20;;;3.40;;
13445;SDS011;6795;51.232;3.764;2024-01-10T01:02:43;6.97;;;4.17;;
13445;SDS011;6795;51.232;3.764;2024-01-10T01:05:12;10.17;;;7.57;;
13445;SDS011;6795;51.232;3.764;2024-01-10T01:07:40;7.43;;;4.70;;
13445;SDS011;6795;51.232;3.764;2024-01-10T01:10:09;7.80;;;5.80;;
13445;SDS011;6795;51.232;3.764;2024-01-10T01:12:38;7.90;;;5.27;;
13445;SDS011;6795;51.232;3.764;2024-01-10T01:15:09;10.10;;;8.43;;
13445;SDS011;6795;51.232;3.764;2024-01-10T01:17:37;10.80;;;6.07;;
13445;SDS011;6795;51.232;3.764;2024-01-10T01:20:06;7.57;;;5.03;;
13445;SDS011;6795;51.232;3.764;2024-01-10T01:22:36;7.80;;;5.70;;
13445;SDS011;6795;51.232;3.764;2024-01-10T01:25:05;7.17;;;3.93;;
13445;SDS011;6795;51.232;3.764;2024-01-10T01:27:35;7.00;;;3.90;;
13445;SDS011;6795;51.232;3.764;2024-01-10T01:30:04;6.70;;;3.87;;
13445;SDS011;6795;51.232;3.764;2024-01-10T01:32:35;7.40;;;4.40;;
13445;SDS011;6795;51.232;3.764;2024-01-10T01:35:03;5.17;;;3.50;;
13445;SDS011;6795;51.232;3.764;2024-01-10T01:37:32;8.87;;;4.33;;
13445;SDS011;6795;51.232;3.764;2024-01-10T01:40:01;8.07;;;4.97;;
13445;SDS011;6795;51.232;3.764;2024-01-10T01:42:29;10.90;;;7.03;;
13445;SDS011;6795;51.232;3.764;2024-01-10T01:44:58;9.37;;;5.70;;
13445;SDS011;6795;51.232;3.764;2024-01-10T01:47:27;6.63;;;4.33;;
13445;SDS011;6795;51.232;3.764;2024-01-10T01:49:56;7.17;;;4.80;;
13445;SDS011;6795;51.232;3.764;2024-01-10T01:52:25;6.60;;;4.57;;
13445;SDS011;6795;51.232;3.764;2024-01-10T01:54:53;5.57;;;3.77;;
13445;SDS011;6795;51.232;3.764;2024-01-10T01:57:21;10.03;;;6.23;;
13445;SDS011;6795;51.232;3.764;2024-01-10T01:59:50;10.77;;;5.50;;
13445;SDS011;6795;51.232;3.764;2024-01-10T02:02:19;15.70;;;7.20;;
13445;SDS011;6795;51.232;3.764;2024-01-10T02:04:49;12.50;;;7.10;;
13445;SDS011;6795;51.232;3.764;2024-01-10T02:07:20;11.13;;;6.60;;
13445;SDS011;6795;51.232;3.764;2024-01-10T02:09:48;6.10;;;4.20;;
13445;SDS011;6795;51.232;3.764;2024-01-10T02:12:16;8.23;;;4.97;;
13445;SDS011;6795;51.232;3.764;2024-01-10T02:14:45;6.80;;;4.00;;
13445;SDS011;6795;51.232;3.764;2024-01-10T02:17:14;5.97;;;4.20;;
13445;SDS011;6795;51.232;3.764;2024-01-10T02:19:43;4.47;;;2.80;;
13445;SDS011;6795;51.232;3.764;2024-01-10T02:22:11;5.40;;;3.47;;
13445;SDS011;6795;51.232;3.764;2024-01-10T02:24:41;6.10;;;3.53;;
13445;SDS011;6795;51.232;3.764;2024-01-10T02:27:10;11.93;;;6.07;;
13445;SDS011;6795;51.232;3.764;2024-01-10T02:29:39;8.17;;;4.10;;
13445;SDS011;6795;51.232;3.764;2024-01-10T02:32:07;5.90;;;4.33;;
13445;SDS011;6795;51.232;3.764;2024-01-10T02:34:35;7.70;;;5.40;;
13445;SDS011;6795;51.232;3.764;2024-01-10T02:37:04;10.30;;;5.97;;
13445;SDS011;6795;51.232;3.764;2024-01-10T02:39:32;7.20;;;4.53;;
13445;SDS011;6795;51.232;3.764;2024-01-10T02:42:01;4.80;;;2.87;;
13445;SDS011;6795;51.232;3.764;2024-01-10T02:44:30;3.70;;;2.83;;
13445;SDS011;6795;51.232;3.764;2024-01-10T02:46:59;6.43;;;3.47;;
13445;SDS011;6795;51.232;3.764;2024-01-10T02:49:27;5.87;;;3.03;;
13445;SDS011;6795;51.232;3.764;2024-01-10T02:51:55;4.33;;;2.67;;
13445;SDS011;6795;51.232;3.764;2024-01-10T02:54:24;5.03;;;3.37;;
13445;SDS011;6795;51.232;3.764;2024-01-10T02:56:52;6.00;;;2.90;;
13445;SDS011;6795;51.232;3.764;2024-01-10T02:59:21;8.60;;;3.97;;
13445;SDS011;6795;51.232;3.764;2024-01-10T03:01:51;6.67;;;3.70;;
13445;SDS011;6795;51.232;3.764;2024-01-10T03:04:19;4.60;;;3.03;;
13445;SDS011;6795;51.232;3.764;2024-01-10T03:06:47;3.47;;;2.17;;
13445;SDS011;6795;51.232;3.764;2024-01-10T03:09:16;6.13;;;2.70;;
13445;SDS011;6795;51.232;3.764;2024-01-10T03:11:44;7.77;;;4.63;;
13445;SDS011;6795;51.232;3.764;2024-01-10T03:14:13;7.37;;;4.57;;
13445;SDS011;6795;51.232;3.764;2024-01-10T03:16:41;7.10;;;4.37;;
13445;SDS011;6795;51.232;3.764;2024-01-10T03:19:11;5.07;;;3.10;;
13445;SDS011;6795;51.232;3.764;2024-01-10T03:21:39;7.50;;;4.60;;
13445;SDS011;6795;51.232;3.764;2024-01-10T03:24:08;9.37;;;4.70;;
13445;SDS011;6795;51.232;3.764;2024-01-10T03:26:36;10.00;;;3.93;;
13445;SDS011;6795;51.232;3.764;2024-01-10T03:29:05;8.83;;;4.43;;
13445;SDS011;6795;51.232;3.764;2024-01-10T03:31:33;8.10;;;3.43;;
13445;SDS011;6795;51.232;3.764;2024-01-10T03:34:01;5.43;;;2.83;;
13445;SDS011;6795;51.232;3.764;2024-01-10T03:36:33;13.53;;;8.17;;
13445;SDS011;6795;51.232;3.764;2024-01-10T03:39:01;5.73;;;5.00;;
13445;SDS011;6795;51.232;3.764;2024-01-10T03:41:30;4.37;;;3.40;;
13445;SDS011;6795;51.232;3.764;2024-01-10T03:43:58;3.80;;;2.87;;
13445;SDS011;6795;51.232;3.764;2024-01-10T03:46:27;4.40;;;3.13;;
13445;SDS011;6795;51.232;3.764;2024-01-10T03:48:55;3.33;;;2.23;;
13445;SDS011;6795;51.232;3.764;2024-01-10T03:51:24;5.97;;;2.00;;
13445;SDS011;6795;51.232;3.764;2024-01-10T03:53:53;4.27;;;1.93;;
13445;SDS011;6795;51.232;3.764;2024-01-10T03:56:22;3.57;;;1.90;;
13445;SDS011;6795;51.232;3.764;2024-01-10T03:58:50;10.17;;;2.43;;
13445;SDS011;6795;51.232;3.764;2024-01-10T04:01:21;2.97;;;1.80;;
13445;SDS011;6795;51.232;3.764;2024-01-10T04:03:50;3.43;;;2.53;;
13445;SDS011;6795;51.232;3.764;2024-01-10T04:06:18;2.57;;;1.90;;
13445;SDS011;6795;51.232;3.764;2024-01-10T04:08:47;5.17;;;2.60;;
13445;SDS011;6795;51.232;3.764;2024-01-10T04:11:16;4.40;;;2.70;;
13445;SDS011;6795;51.232;3.764;2024-01-10T04:13:45;3.97;;;2.60;;
13445;SDS011;6795;51.232;3.764;2024-01-10T04:16:14;6.50;;;3.13;;
13445;SDS011;6795;51.232;3.764;2024-01-10T04:18:43;4.10;;;2.63;;
13445;SDS011;6795;51.232;3.764;2024-01-10T04:21:11;4.80;;;2.57;;
13445;SDS011;6795;51.232;3.764;2024-01-10T04:23:39;3.00;;;2.23;;
13445;SDS011;6795;51.232;3.764;2024-01-10T04:26:08;5.37;;;2.40;;
13445;SDS011;6795;51.232;3.764;2024-01-10T04:28:38;5.27;;;2.70;;
13445;SDS011;6795;51.232;3.764;2024-01-10T04:31:08;4.20;;;2.57;;
13445;SDS011;6795;51.232;3.764;2024-01-10T04:33:36;4.13;;;2.27;;
13445;SDS011;6795;51.232;3.764;2024-01-10T04:36:05;4.10;;;2.73;;
13445;SDS011;6795;51.232;3.764;2024-01-10T04:38:33;3.33;;;2.07;;
13445;SDS011;6795;51.232;3.764;2024-01-10T04:41:02;4.50;;;2.90;;
13445;SDS011;6795;51.232;3.764;2024-01-10T04:43:30;4.03;;;2.93;;
13445;SDS011;6795;51.232;3.764;2024-01-10T04:46:00;4.47;;;3.07;;
13445;SDS011;6795;51.232;3.764;2024-01-10T04:48:29;3.07;;;2.73;;
13445;SDS011;6795;51.232;3.764;2024-01-10T04:50:58;4.90;;;2.90;;
13445;SDS011;6795;51.232;3.764;2024-01-10T04:53:27;4.93;;;2.70;;
13445;SDS011;6795;51.232;3.764;2024-01-10T04:55:55;6.00;;;3.47;;
13445;SDS011;6795;51.232;3.764;2024-01-10T04:58:24;5.43;;;3.20;;
13445;SDS011;6795;51.232;3.764;2024-01-10T05:00:52;5.83;;;3.83;;
13445;SDS011;6795;51.232;3.764;2024-01-10T05:03:22;6.30;;;3.67;;
13445;SDS011;6795;51.232;3.764;2024-01-10T05:05:50;5.37;;;3.70;;
13445;SDS011;6795;51.232;3.764;2024-01-10T05:08:19;5.20;;;3.63;;
13445;SDS011;6795;51.232;3.764;2024-01-10T05:10:47;5.93;;;4.13;;
13445;SDS011;6795;51.232;3.764;2024-01-10T05:13:17;6.93;;;3.80;;
13445;SDS011;6795;51.232;3.764;2024-01-10T05:15:45;5.27;;;3.70;;
13445;SDS011;6795;51.232;3.764;2024-01-10T05:18:13;4.13;;;3.23;;
13445;SDS011;6795;51.232;3.764;2024-01-10T05:20:44;4.67;;;2.90;;
13445;SDS011;6795;51.232;3.764;2024-01-10T05:23:12;7.70;;;3.30;;
13445;SDS011;6795;51.232;3.764;2024-01-10T05:25:41;5.77;;;3.33;;
13445;SDS011;6795;51.232;3.764;2024-01-10T05:28:09;5.57;;;3.20;;
13445;SDS011;6795;51.232;3.764;2024-01-10T05:30:38;4.30;;;2.93;;
13445;SDS011;6795;51.232;3.764;2024-01-10T05:33:06;6.97;;;3.10;;
13445;SDS011;6795;51.232;3.764;2024-01-10T05:35:35;4.00;;;2.33;;
13445;SDS011;6795;51.232;3.764;2024-01-10T05:38:04;4.27;;;2.53;;
13445;SDS011;6795;51.232;3.764;2024-01-10T05:40:33;4.20;;;2.73;;
13445;SDS011;6795;51.232;3.764;2024-01-10T05:43:02;4.63;;;3.23;;
13445;SDS011;6795;51.232;3.764;2024-01-10T05:45:30;3.03;;;2.33;;
13445;SDS011;6795;51.232;3.764;2024-01-10T05:47:58;3.33;;;2.93;;
13445;SDS011;6795;51.232;3.764;2024-01-10T05:50:27;5.03;;;2.77;;
13445;SDS011;6795;51.232;3.764;2024-01-10T05:52:56;4.23;;;2.63;;
13445;SDS011;6795;51.232;3.764;2024-01-10T05:55:26;5.20;;;3.10;;
13445;SDS011;6795;51.232;3.764;2024-01-10T05:57:54;2.73;;;2.23;;
13445;SDS011;6795;51.232;3.764;2024-01-10T06:00:22;5.40;;;2.70;;
13445;SDS011;6795;51.232;3.764;2024-01-10T06:02:51;3.33;;;2.73;;
13445;SDS011;6795;51.232;3.764;2024-01-10T06:05:19;5.07;;;2.63;;
13445;SDS011;6795;51.232;3.764;2024-01-10T06:07:48;6.10;;;2.63;;
13445;SDS011;6795;51.232;3.764;2024-01-10T06:10:16;3.97;;;2.53;;
13445;SDS011;6795;51.232;3.764;2024-01-10T06:12:46;5.70;;;3.07;;
13445;SDS011;6795;51.232;3.764;2024-01-10T06:15:15;2.90;;;2.43;;
13445;SDS011;6795;51.232;3.764;2024-01-10T06:17:45;6.00;;;2.30;;
13445;SDS011;6795;51.232;3.764;2024-01-10T06:20:15;4.27;;;2.90;;
13445;SDS011;6795;51.232;3.764;2024-01-10T06:22:43;3.90;;;2.50;;
13445;SDS011;6795;51.232;3.764;2024-01-10T06:25:13;6.87;;;3.53;;
13445;SDS011;6795;51.232;3.764;2024-01-10T06:27:42;5.20;;;2.73;;
13445;SDS011;6795;51.232;3.764;2024-01-10T06:30:12;4.73;;;2.93;;
13445;SDS011;6795;51.232;3.764;2024-01-10T06:32:40;5.07;;;2.80;;
13445;SDS011;6795;51.232;3.764;2024-01-10T06:35:09;5.67;;;3.10;;
13445;SDS011;6795;51.232;3.764;2024-01-10T06:37:38;5.77;;;2.20;;
13445;SDS011;6795;51.232;3.764;2024-01-10T06:40:11;5.67;;;3.30;;
13445;SDS011;6795;51.232;3.764;2024-01-10T06:42:40;4.30;;;2.43;;
13445;SDS011;6795;51.232;3.764;2024-01-10T06:45:08;5.60;;;3.53;;
13445;SDS011;6795;51.232;3.764;2024-01-10T06:47:40;4.43;;;2.60;;
13445;SDS011;6795;51.232;3.764;2024-01-10T06:50:08;4.23;;;2.13;;
13445;SDS011;6795;51.232;3.764;2024-01-10T06:52:37;4.80;;;3.03;;
13445;SDS011;6795;51.232;3.764;2024-01-10T06:55:06;4.93;;;3.80;;
13445;SDS011;6795;51.232;3.764;2024-01-10T06:57:35;6.70;;;2.93;;
13445;SDS011;6795;51.232;3.764;2024-01-10T07:00:04;4.47;;;3.37;;
13445;SDS011;6795;51.232;3.764;2024-01-10T07:02:38;6.37;;;3.53;;
13445;SDS011;6795;51.232;3.764;2024-01-10T07:05:09;7.90;;;4.50;;
13445;SDS011;6795;51.232;3.764;2024-01-10T07:07:38;8.70;;;5.72;;
13445;SDS011;6795;51.232;3.764;2024-01-10T07:10:06;5.07;;;4.33;;
13445;SDS011;6795;51.232;3.764;2024-01-10T07:12:35;5.47;;;4.40;;
13445;SDS011;6795;51.232;3.764;2024-01-10T07:15:04;6.30;;;4.00;;
13445;SDS011;6795;51.232;3.764;2024-01-10T07:17:33;4.70;;;3.87;;
13445;SDS011;6795;51.232;3.764;2024-01-10T07:20:03;5.77;;;3.20;;
13445;SDS011;6795;51.232;3.764;2024-01-10T07:22:34;5.10;;;3.57;;
13445;SDS011;6795;51.232;3.764;2024-01-10T07:25:02;3.87;;;2.57;;
13445;SDS011;6795;51.232;3.764;2024-01-10T07:27:34;5.77;;;3.77;;
13445;SDS011;6795;51.232;3.764;2024-01-10T07:30:04;6.23;;;3.57;;
13445;SDS011;6795;51.232;3.764;2024-01-10T07:32:38;7.47;;;3.37;;
13445;SDS011;6795;51.232;3.764;2024-01-10T07:35:09;7.63;;;3.17;;
13445;SDS011;6795;51.232;3.764;2024-01-10T07:37:38;6.47;;;3.50;;
13445;SDS011;6795;51.232;3.764;2024-01-10T07:40:07;4.63;;;2.60;;
13445;SDS011;6795;51.232;3.764;2024-01-10T07:42:37;7.13;;;3.30;;
13445;SDS011;6795;51.232;3.764;2024-01-10T07:45:07;4.20;;;2.90;;
13445;SDS011;6795;51.232;3.764;2024-01-10T07:47:37;5.27;;;2.53;;
13445;SDS011;6795;51.232;3.764;2024-01-10T07:50:06;3.87;;;2.63;;
13445;SDS011;6795;51.232;3.764;2024-01-10T07:52:39;4.47;;;2.40;;
13445;SDS011;6795;51.232;3.764;2024-01-10T07:55:08;3.73;;;2.80;;
13445;SDS011;6795;51.232;3.764;2024-01-10T07:57:38;7.47;;;3.73;;
13445;SDS011;6795;51.232;3.764;2024-01-10T08:00:09;5.23;;;3.37;;
13445;SDS011;6795;51.232;3.764;2024-01-10T08:02:38;5.03;;;3.10;;
13445;SDS011;6795;51.232;3.764;2024-01-10T08:05:07;3.33;;;2.50;;
13445;SDS011;6795;51.232;3.764;2024-01-10T08:07:37;5.13;;;3.53;;
13445;SDS011;6795;51.232;3.764;2024-01-10T08:10:06;6.23;;;2.77;;
13445;SDS011;6795;51.232;3.764;2024-01-10T08:12:36;5.90;;;3.53;;
13445;SDS011;6795;51.232;3.764;2024-01-10T08:15:06;4.20;;;3.13;;
13445;SDS011;6795;51.232;3.764;2024-01-10T08:17:34;6.63;;;3.40;;
13445;SDS011;6795;51.232;3.764;2024-01-10T08:20:05;6.50;;;3.40;;
13445;SDS011;6795;51.232;3.764;2024-01-10T08:22:39;5.33;;;3.10;;
13445;SDS011;6795;51.232;3.764;2024-01-10T08:25:07;5.33;;;3.80;;
13445;SDS011;6795;51.232;3.764;2024-01-10T08:27:36;6.07;;;3.43;;
13445;SDS011;6795;51.232;3.764;2024-01-10T08:30:05;5.07;;;3.27;;
13445;SDS011;6795;51.232;3.764;2024-01-10T08:32:36;4.03;;;3.23;;
13445;SDS011;6795;51.232;3.764;2024-01-10T08:35:05;8.17;;;3.93;;
13445;SDS011;6795;51.232;3.764;2024-01-10T08:37:36;5.17;;;3.43;;
13445;SDS011;6795;51.232;3.764;2024-01-10T08:40:09;7.40;;;3.83;;
13445;SDS011;6795;51.232;3.764;2024-01-10T08:42:39;4.83;;;3.93;;
13445;SDS011;6795;51.232;3.764;2024-01-10T08:45:07;4.43;;;3.13;;
13445;SDS011;6795;51.232;3.764;2024-01-10T08:47:39;5.07;;;3.40;;
13445;SDS011;6795;51.232;3.764;2024-01-10T08:50:07;6.60;;;3.63;;
13445;SDS011;6795;51.232;3.764;2024-01-10T08:52:36;5.37;;;3.60;;
13445;SDS011;6795;51.232;3.764;2024-01-10T08:55:05;3.30;;;2.93;;
13445;SDS011;6795;51.232;3.764;2024-01-10T08:57:41;4.63;;;3.23;;
13445;SDS011;6795;51.232;3.764;2024-01-10T09:00:10;5.57;;;3.50;;
13445;SDS011;6795;51.232;3.764;2024-01-10T09:02:39;4.43;;;3.37;;
13445;SDS011;6795;51.232;3.764;2024-01-10T09:05:08;5.13;;;3.77;;
13445;SDS011;6795;51.232;3.764;2024-01-10T09:07:38;8.47;;;4.40;;
13445;SDS011;6795;51.232;3.764;2024-01-10T09:10:09;5.33;;;3.93;;
13445;SDS011;6795;51.232;3.764;2024-01-10T09:12:37;6.73;;;4.27;;
13445;SDS011;6795;51.232;3.764;2024-01-10T09:15:07;8.70;;;4.27;;
13445;SDS011;6795;51.232;3.764;2024-01-10T09:17:39;7.47;;;3.50;;
13445;SDS011;6795;51.232;3.764;2024-01-10T09:20:09;7.73;;;4.23;;
13445;SDS011;6795;51.232;3.764;2024-01-10T09:22:38;5.23;;;3.90;;
13445;SDS011;6795;51.232;3.764;2024-01-10T09:25:07;9.17;;;4.67;;
13445;SDS011;6795;51.232;3.764;2024-01-10T09:27:36;6.03;;;3.73;;
13445;SDS011;6795;51.232;3.764;2024-01-10T09:30:05;5.80;;;4.23;;
13445;SDS011;6795;51.232;3.764;2024-01-10T09:32:37;5.33;;;4.07;;
13445;SDS011;6795;51.232;3.764;2024-01-10T09:35:07;6.03;;;3.97;;
13445;SDS011;6795;51.232;3.764;2024-01-10T09:37:36;6.00;;;4.47;;
13445;SDS011;6795;51.232;3.764;2024-01-10T09:40:06;5.40;;;3.97;;
13445;SDS011;6795;51.232;3.764;2024-01-10T09:42:35;5.63;;;4.20;;
13445;SDS011;6795;51.232;3.764;2024-01-10T09:45:05;6.77;;;4.77;;
13445;SDS011;6795;51.232;3.764;2024-01-10T09:47:37;8.40;;;5.20;;
13445;SDS011;6795;51.232;3.764;2024-01-10T09:50:10;9.20;;;4.70;;
13445;SDS011;6795;51.232;3.764;2024-01-10T09:52:41;6.00;;;4.43;;
13445;SDS011;6795;51.232;3.764;2024-01-10T09:55:17;4.60;;;3.97;;
13445;SDS011;6795;51.232;3.764;2024-01-10T09:57:51;5.40;;;4.00;;
13445;SDS011;6795;51.232;3.764;2024-01-10T10:00:20;7.70;;;4.37;;
13445;SDS011;6795;51.232;3.764;2024-01-10T10:02:51;6.60;;;5.20;;
13445;SDS011;6795;51.232;3.764;2024-01-10T10:05:23;7.10;;;4.60;;
13445;SDS011;6795;51.232;3.764;2024-01-10T10:07:52;8.20;;;4.40;;
13445;SDS011;6795;51.232;3.764;2024-01-10T10:10:21;7.50;;;4.10;;
13445;SDS011;6795;51.232;3.764;2024-01-10T10:12:50;5.97;;;4.47;;
13445;SDS011;6795;51.232;3.764;2024-01-10T10:15:21;5.10;;;4.17;;
13445;SDS011;6795;51.232;3.764;2024-01-10T10:17:51;8.23;;;4.40;;
13445;SDS011;6795;51.232;3.764;2024-01-10T10:20:22;6.23;;;4.13;;
13445;SDS011;6795;51.232;3.764;2024-01-10T10:22:57;8.03;;;3.83;;
13445;SDS011;6795;51.232;3.764;2024-01-10T10:25:29;7.90;;;4.33;;
13445;SDS011;6795;51.232;3.764;2024-01-10T10:27:59;5.60;;;4.37;;
13445;SDS011;6795;51.232;3.764;2024-01-10T10:30:30;9.90;;;4.67;;
13445;SDS011;6795;51.232;3.764;2024-01-10T10:33:01;7.47;;;5.13;;
13445;SDS011;6795;51.232;3.764;2024-01-10T10:35:32;10.53;;;4.80;;
13445;SDS011;6795;51.232;3.764;2024-01-10T10:38:07;5.90;;;5.20;;
13445;SDS011;6795;51.232;3.764;2024-01-10T10:40:37;10.83;;;4.47;;
13445;SDS011;6795;51.232;3.764;2024-01-10T10:43:06;7.33;;;5.13;;
13445;SDS011;6795;51.232;3.764;2024-01-10T10:45:38;6.20;;;5.10;;
13445;SDS011;6795;51.232;3.764;2024-01-10T10:48:09;6.50;;;5.03;;
13445;SDS011;6795;51.232;3.764;2024-01-10T10:50:47;7.87;;;5.70;;
13445;SDS011;6795;51.232;3.764;2024-01-10T10:53:21;6.30;;;4.90;;
13445;SDS011;6795;51.232;3.764;2024-01-10T10:55:53;5.37;;;4.87;;
13445;SDS011;6795;51.232;3.764;2024-01-10T10:58:22;7.67;;;5.40;;
13445;SDS011;6795;51.232;3.764;2024-01-10T11:00:51;7.07;;;5.20;;
13445;SDS011;6795;51.232;3.764;2024-01-10T11:03:21;7.83;;;5.37;;
13445;SDS011;6795;51.232;3.764;2024-01-10T11:05:53;5.90;;;4.60;;
13445;SDS011;6795;51.232;3.764;2024-01-10T11:08:22;7.20;;;4.83;;
13445;SDS011;6795;51.232;3.764;2024-01-10T11:10:51;6.33;;;5.23;;
13445;SDS011;6795;51.232;3.764;2024-01-10T11:13:28;5.43;;;4.83;;
13445;SDS011;6795;51.232;3.764;2024-01-10T11:25:42;11.13;;;4.90;;
13445;SDS011;6795;51.232;3.764;2024-01-10T11:28:11;6.70;;;5.03;;
13445;SDS011;6795;51.232;3.764;2024-01-10T11:30:48;7.07;;;5.17;;
13445;SDS011;6795;51.232;3.764;2024-01-10T11:33:20;12.93;;;6.10;;
13445;SDS011;6795;51.232;3.764;2024-01-10T11:36:07;6.57;;;4.87;;
13445;SDS011;6795;51.232;3.764;2024-01-10T11:38:48;6.57;;;5.10;;
13445;SDS011;6795;51.232;3.764;2024-01-10T11:41:23;6.90;;;5.00;;
13445;SDS011;6795;51.232;3.764;2024-01-10T11:47:07;7.77;;;5.43;;
13445;SDS011;6795;51.232;3.764;2024-01-10T11:49:35;7.03;;;5.43;;
13445;SDS011;6795;51.232;3.764;2024-01-10T11:52:06;7.10;;;5.23;;
13445;SDS011;6795;51.232;3.764;2024-01-10T11:54:37;8.53;;;5.80;;
13445;SDS011;6795;51.232;3.764;2024-01-10T11:57:13;9.30;;;5.20;;
13445;SDS011;6795;51.232;3.764;2024-01-10T11:59:47;7.00;;;5.30;;
13445;SDS011;6795;51.232;3.764;2024-01-10T12:02:18;6.47;;;4.90;;
13445;SDS011;6795;51.232;3.764;2024-01-10T12:04:50;9.20;;;5.43;;
13445;SDS011;6795;51.232;3.764;2024-01-10T12:07:21;6.63;;;5.13;;
13445;SDS011;6795;51.232;3.764;2024-01-10T12:09:52;7.53;;;5.27;;
13445;SDS011;6795;51.232;3.764;2024-01-10T12:12:23;7.90;;;5.57;;
13445;SDS011;6795;51.232;3.764;2024-01-10T12:14:53;8.77;;;5.57;;
13445;SDS011;6795;51.232;3.764;2024-01-10T12:17:22;8.47;;;6.13;;
13445;SDS011;6795;51.232;3.764;2024-01-10T12:19:54;8.13;;;5.47;;
13445;SDS011;6795;51.232;3.764;2024-01-10T12:22:24;6.10;;;5.23;;
13445;SDS011;6795;51.232;3.764;2024-01-10T12:24:53;7.63;;;5.57;;
13445;SDS011;6795;51.232;3.764;2024-01-10T12:27:21;10.20;;;5.77;;
13445;SDS011;6795;51.232;3.764;2024-01-10T12:29:51;10.03;;;5.57;;
13445;SDS011;6795;51.232;3.764;2024-01-10T12:32:21;7.37;;;5.37;;
13445;SDS011;6795;51.232;3.764;2024-01-10T12:34:57;10.20;;;5.73;;
13445;SDS011;6795;51.232;3.764;2024-01-10T12:37:29;8.17;;;5.10;;
13445;SDS011;6795;51.232;3.764;2024-01-10T12:39:57;6.77;;;5.37;;
13445;SDS011;6795;51.232;3.764;2024-01-10T12:42:26;9.40;;;5.30;;
13445;SDS011;6795;51.232;3.764;2024-01-10T12:44:55;9.23;;;5.73;;
13445;SDS011;6795;51.232;3.764;2024-01-10T12:47:24;8.20;;;5.13;;
13445;SDS011;6795;51.232;3.764;2024-01-10T12:49:53;8.57;;;5.50;;
13445;SDS011;6795;51.232;3.764;2024-01-10T12:52:22;8.97;;;5.67;;
13445;SDS011;6795;51.232;3.764;2024-01-10T12:54:53;7.90;;;5.73;;
13445;SDS011;6795;51.232;3.764;2024-01-10T12:57:21;10.60;;;6.13;;
13445;SDS011;6795;51.232;3.764;2024-01-10T12:59:50;9.43;;;5.87;;
13445;SDS011;6795;51.232;3.764;2024-01-10T13:02:19;12.27;;;5.97;;
13445;SDS011;6795;51.232;3.764;2024-01-10T13:04:48;7.87;;;5.13;;
13445;SDS011;6795;51.232;3.764;2024-01-10T13:07:17;8.50;;;6.00;;
13445;SDS011;6795;51.232;3.764;2024-01-10T13:09:45;7.97;;;5.97;;
13445;SDS011;6795;51.232;3.764;2024-01-10T13:12:15;9.00;;;6.17;;
13445;SDS011;6795;51.232;3.764;2024-01-10T13:14:43;12.43;;;6.40;;
13445;SDS011;6795;51.232;3.764;2024-01-10T13:17:11;8.27;;;5.67;;
13445;SDS011;6795;51.232;3.764;2024-01-10T13:19:40;8.03;;;6.07;;
13445;SDS011;6795;51.232;3.764;2024-01-10T13:22:12;7.47;;;5.73;;
13445;SDS011;6795;51.232;3.764;2024-01-10T13:24:42;7.30;;;5.30;;
13445;SDS011;6795;51.232;3.764;2024-01-10T13:27:12;8.17;;;5.70;;
13445;SDS011;6795;51.232;3.764;2024-01-10T13:29:44;8.87;;;5.73;;
13445;SDS011;6795;51.232;3.764;2024-01-10T13:32:13;10.73;;;6.20;;
13445;SDS011;6795;51.232;3.764;2024-01-10T13:34:42;7.77;;;5.90;;
13445;SDS011;6795;51.232;3.764;2024-01-10T13:37:11;10.17;;;6.27;;
13445;SDS011;6795;51.232;3.764;2024-01-10T13:39:40;8.10;;;5.90;;
13445;SDS011;6795;51.232;3.764;2024-01-10T13:42:09;9.03;;;6.43;;
13445;SDS011;6795;51.232;3.764;2024-01-10T13:44:37;8.30;;;6.30;;
13445;SDS011;6795;51.232;3.764;2024-01-10T13:47:09;9.27;;;6.40;;
13445;SDS011;6795;51.232;3.764;2024-01-10T13:49:37;9.80;;;6.20;;
13445;SDS011;6795;51.232;3.764;2024-01-10T13:52:07;7.73;;;6.10;;
13445;SDS011;6795;51.232;3.764;2024-01-10T13:54:35;12.93;;;6.23;;
13445;SDS011;6795;51.232;3.764;2024-01-10T13:57:04;8.57;;;6.60;;
13445;SDS011;6795;51.232;3.764;2024-01-10T13:59:34;8.10;;;6.07;;
13445;SDS011;6795;51.232;3.764;2024-01-10T14:02:02;9.67;;;6.60;;
13445;SDS011;6795;51.232;3.764;2024-01-10T14:04:34;8.73;;;6.63;;
13445;SDS011;6795;51.232;3.764;2024-01-10T14:07:02;9.10;;;6.93;;
13445;SDS011;6795;51.232;3.764;2024-01-10T14:09:31;8.60;;;6.67;;
13445;SDS011;6795;51.232;3.764;2024-01-10T14:12:00;9.27;;;6.23;;
13445;SDS011;6795;51.232;3.764;2024-01-10T14:14:28;9.30;;;6.77;;
13445;SDS011;6795;51.232;3.764;2024-01-10T14:16:58;9.27;;;6.83;;
13445;SDS011;6795;51.232;3.764;2024-01-10T14:19:26;8.30;;;6.67;;
13445;SDS011;6795;51.232;3.764;2024-01-10T14:21:56;8.40;;;6.60;;
13445;SDS011;6795;51.232;3.764;2024-01-10T14:24:47;10.03;;;6.13;;
13445;SDS011;6795;51.232;3.764;2024-01-10T14:27:18;7.63;;;6.37;;
13445;SDS011;6795;51.232;3.764;2024-01-10T14:29:46;8.97;;;6.20;;
13445;SDS011;6795;51.232;3.764;2024-01-10T14:32:14;9.37;;;6.70;;
13445;SDS011;6795;51.232;3.764;2024-01-10T14:34:44;7.73;;;6.40;;
13445;SDS011;6795;51.232;3.764;2024-01-10T14:37:15;7.20;;;6.13;;
13445;SDS011;6795;51.232;3.764;2024-01-10T14:39:43;6.83;;;5.53;;
13445;SDS011;6795;51.232;3.764;2024-01-10T14:42:12;7.47;;;5.80;;
13445;SDS011;6795;51.232;3.764;2024-01-10T14:44:40;9.07;;;5.67;;
13445;SDS011;6795;51.232;3.764;2024-01-10T14:47:09;9.70;;;6.40;;
13445;SDS011;6795;51.232;3.764;2024-01-10T14:49:38;10.53;;;6.10;;
13445;SDS011;6795;51.232;3.764;2024-01-10T14:52:07;8.83;;;6.53;;
13445;SDS011;6795;51.232;3.764;2024-01-10T14:54:37;7.73;;;5.83;;
13445;SDS011;6795;51.232;3.764;2024-01-10T14:57:06;9.37;;;5.43;;
13445;SDS011;6795;51.232;3.764;2024-01-10T14:59:35;8.77;;;6.30;;
13445;SDS011;6795;51.232;3.764;2024-01-10T15:02:12;8.17;;;6.30;;
13445;SDS011;6795;51.232;3.764;2024-01-10T15:04:40;7.80;;;5.73;;
13445;SDS011;6795;51.232;3.764;2024-01-10T15:07:10;9.73;;;6.57;;
13445;SDS011;6795;51.232;3.764;2024-01-10T15:09:41;8.57;;;5.90;;
13445;SDS011;6795;51.232;3.764;2024-01-10T15:12:10;8.27;;;6.43;;
13445;SDS011;6795;51.232;3.764;2024-01-10T15:14:40;8.50;;;6.47;;
13445;SDS011;6795;51.232;3.764;2024-01-10T15:17:08;8.60;;;6.67;;
13445;SDS011;6795;51.232;3.764;2024-01-10T15:19:39;9.30;;;6.57;;
13445;SDS011;6795;51.232;3.764;2024-01-10T15:22:07;12.17;;;5.93;;
13445;SDS011;6795;51.232;3.764;2024-01-10T15:24:36;8.37;;;6.13;;
13445;SDS011;6795;51.232;3.764;2024-01-10T15:27:06;10.47;;;6.53;;